Time;durP1;ratioP1;P1;durP2;ratioP2;P2;SDS_P1;SDS_P2;PMS_P1;PMS_P2;Temp;Humidity;BMP_temperature;BMP_pressure;BME280_temperature;BME280_humidity;BME280_pressure;Samples;Min_cycle;Max_cycle;Signal;HPM_P1;HPM_P2
2021/11/26 07:26:17;;;;;;;7.97;1.60;;;4.20;99.90;;;;;;4897665;29;20221;-73
2021/11/26 07:28:43;;;;;;;12.00;3.03;;;4.20;99.90;;;;;;4883307;29;20211;-71
2021/11/26 07:31:10;;;;;;;9.97;1.83;;;4.20;99.90;;;;;;4883374;29;20231;-71
2021/11/26 07:33:37;;;;;;;15.67;2.13;;;4.20;99.90;;;;;;4883191;29;20207;-72
2021/11/26 07:36:03;;;;;;;9.67;2.07;;;4.20;99.90;;;;;;4883136;29;20211;-71
2021/11/26 07:38:30;;;;;;;13.97;1.90;;;4.30;99.90;;;;;;4882518;29;20672;-72
2021/11/26 07:40:57;;;;;;;10.47;2.00;;;4.20;99.90;;;;;;4882574;29;20238;-72
2021/11/26 07:43:23;;;;;;;11.23;2.20;;;4.20;99.90;;;;;;4882896;29;20242;-72
2021/11/26 07:45:50;;;;;;;6.50;1.73;;;4.20;99.90;;;;;;4883049;29;20215;-73
2021/11/26 07:48:16;;;;;;;9.10;1.87;;;4.20;99.90;;;;;;4882661;29;20215;-71
2021/11/26 07:50:43;;;;;;;5.17;1.37;;;4.30;99.90;;;;;;4882671;29;20569;-72
2021/11/26 07:53:10;;;;;;;4.67;1.60;;;4.30;99.90;;;;;;4882513;29;20698;-72
2021/11/26 07:55:36;;;;;;;8.50;1.90;;;4.30;99.90;;;;;;4882338;29;20218;-71
2021/11/26 07:58:05;;;;;;;5.87;1.63;;;4.20;99.90;;;;;;4882605;29;20210;-71
2021/11/26 08:00:31;;;;;;;3.60;1.43;;;4.20;99.90;;;;;;4882483;29;20234;-72
2021/11/26 08:03:01;;;;;;;12.47;1.77;;;4.30;99.90;;;;;;4882082;29;20591;-72
2021/11/26 08:05:28;;;;;;;2.53;1.30;;;4.30;99.90;;;;;;4883272;29;20215;-71
2021/11/26 08:07:54;;;;;;;10.57;1.77;;;4.30;99.90;;;;;;4882029;29;20218;-73
2021/11/26 08:10:21;;;;;;;13.03;2.03;;;4.30;99.90;;;;;;4882300;29;20214;-71
2021/11/26 08:12:48;;;;;;;7.03;1.37;;;4.40;99.90;;;;;;4882159;29;20304;-72
2021/11/26 08:15:14;;;;;;;2.40;0.80;;;4.50;99.90;;;;;;4881941;29;20217;-73
2021/11/26 08:17:41;;;;;;;9.30;1.77;;;4.50;99.90;;;;;;4881924;29;20211;-73
2021/11/26 08:20:08;;;;;;;6.07;1.33;;;4.50;99.90;;;;;;4882095;29;20239;-71
2021/11/26 08:22:35;;;;;;;4.73;1.47;;;4.50;99.90;;;;;;4882407;29;20234;-71
2021/11/26 08:25:03;;;;;;;8.60;1.93;;;4.50;99.90;;;;;;4881969;29;20234;-73
2021/11/26 08:27:30;;;;;;;3.53;1.30;;;4.50;99.90;;;;;;4894353;29;20211;-72
2021/11/26 08:29:57;;;;;;;4.53;1.63;;;4.50;99.90;;;;;;4897944;29;20682;-72
2021/11/26 08:32:24;;;;;;;5.43;1.40;;;4.50;99.90;;;;;;4896875;29;20325;-70
2021/11/26 08:34:51;;;;;;;3.03;1.07;;;4.60;99.90;;;;;;4898759;29;20206;-71
2021/11/26 08:37:17;;;;;;;9.67;1.93;;;4.60;99.90;;;;;;4898468;29;20210;-71
2021/11/26 08:39:44;;;;;;;8.37;1.53;;;4.60;99.90;;;;;;4898729;29;20211;-70
2021/11/26 08:42:12;;;;;;;11.90;1.73;;;4.60;99.90;;;;;;4898363;29;20733;-71
2021/11/26 08:44:39;;;;;;;14.33;1.63;;;4.60;99.90;;;;;;4898400;29;20238;-71
2021/11/26 08:47:06;;;;;;;6.57;1.67;;;4.60;99.90;;;;;;4898701;29;20216;-71
2021/11/26 08:49:33;;;;;;;6.70;1.80;;;4.70;99.90;;;;;;4898441;29;20651;-70
2021/11/26 08:52:00;;;;;;;6.50;1.40;;;4.60;99.90;;;;;;4898554;29;20230;-70
2021/11/26 08:54:27;;;;;;;5.43;1.73;;;4.70;99.90;;;;;;4898103;29;20214;-70
2021/11/26 08:56:56;;;;;;;8.03;1.67;;;4.70;99.90;;;;;;4898200;29;20270;-71
2021/11/26 08:59:25;;;;;;;5.70;1.87;;;4.80;99.90;;;;;;4897992;29;20210;-71
2021/11/26 09:01:53;;;;;;;6.73;1.97;;;4.80;99.90;;;;;;4898366;29;20252;-71
2021/11/26 09:04:21;;;;;;;5.60;1.30;;;4.80;99.90;;;;;;4898298;29;20273;-71
2021/11/26 09:06:48;;;;;;;11.00;1.53;;;4.80;99.90;;;;;;4898194;29;20206;-71
2021/11/26 09:09:16;;;;;;;5.07;1.37;;;4.90;99.90;;;;;;4898410;29;20214;-70
2021/11/26 09:11:42;;;;;;;7.77;2.20;;;5.00;99.90;;;;;;4898113;29;20290;-70
2021/11/26 09:14:09;;;;;;;6.20;2.00;;;5.10;99.90;;;;;;4898593;29;20217;-71
2021/11/26 09:16:38;;;;;;;7.60;1.77;;;5.20;99.90;;;;;;4898479;29;20579;-71
2021/11/26 09:19:05;;;;;;;4.13;1.40;;;5.30;99.90;;;;;;4898195;29;20214;-72
2021/11/26 09:21:33;;;;;;;7.57;1.60;;;5.40;99.90;;;;;;4898498;29;20403;-71
2021/11/26 09:24:00;;;;;;;6.27;1.90;;;5.40;99.90;;;;;;4898192;29;20789;-72
2021/11/26 09:26:26;;;;;;;8.93;2.10;;;5.40;99.90;;;;;;4898242;29;20210;-71
2021/11/26 09:28:54;;;;;;;5.67;1.70;;;5.40;99.90;;;;;;4898443;29;20213;-71
2021/11/26 09:31:21;;;;;;;2.90;1.37;;;5.50;99.90;;;;;;4898298;29;20226;-71
2021/11/26 09:33:52;;;;;;;7.37;1.43;;;5.40;99.90;;;;;;4898103;29;20224;-71
2021/11/26 09:36:19;;;;;;;7.30;2.20;;;5.30;99.90;;;;;;4898144;29;20210;-71
2021/11/26 09:38:46;;;;;;;2.50;1.60;;;5.20;99.90;;;;;;4897900;29;20667;-71
2021/11/26 09:41:15;;;;;;;9.57;2.10;;;5.20;99.90;;;;;;4897996;29;20238;-71
2021/11/26 09:43:45;;;;;;;7.33;1.47;;;5.20;99.90;;;;;;4897910;29;20301;-72
2021/11/26 09:46:12;;;;;;;6.40;1.67;;;5.20;99.90;;;;;;4898085;29;20210;-71
2021/11/26 09:48:38;;;;;;;6.57;1.40;;;5.10;99.90;;;;;;4897762;29;20731;-71
2021/11/26 09:51:07;;;;;;;5.90;1.40;;;5.20;99.90;;;;;;4897769;29;20233;-71
2021/11/26 09:53:35;;;;;;;3.90;1.03;;;5.20;99.90;;;;;;4897715;29;20591;-70
2021/11/26 09:56:05;;;;;;;7.90;1.77;;;5.20;99.90;;;;;;4897914;29;20594;-71
2021/11/26 09:58:34;;;;;;;6.03;1.60;;;5.20;99.90;;;;;;4898310;29;20210;-71
2021/11/26 10:01:03;;;;;;;5.37;1.70;;;5.20;99.90;;;;;;4897895;29;20230;-71
2021/11/26 10:03:39;;;;;;;8.23;1.93;;;5.20;99.90;;;;;;4897587;29;20238;-69
2021/11/26 10:06:19;;;;;;;3.83;1.37;;;5.10;99.90;;;;;;4897788;29;20708;-69
2021/11/26 10:09:00;;;;;;;4.67;1.73;;;5.10;99.90;;;;;;4897748;29;20698;-70
2021/11/26 10:11:28;;;;;;;3.83;1.50;;;5.00;99.90;;;;;;4897494;29;20234;-70
2021/11/26 10:13:55;;;;;;;4.80;1.43;;;5.00;99.90;;;;;;4898103;29;20210;-69
2021/11/26 10:16:22;;;;;;;6.67;1.47;;;5.00;99.90;;;;;;4897674;29;20210;-70
2021/11/26 10:18:51;;;;;;;3.70;1.13;;;5.00;99.90;;;;;;4897950;29;20221;-71
2021/11/26 10:21:20;;;;;;;1.20;0.80;;;5.00;99.90;;;;;;4897799;29;20599;-71
2021/11/26 10:23:49;;;;;;;6.37;1.43;;;5.10;99.90;;;;;;4897756;29;20256;-71
2021/11/26 10:26:18;;;;;;;5.90;1.30;;;5.00;99.90;;;;;;4897297;29;20222;-71
2021/11/26 10:28:50;;;;;;;5.77;1.90;;;5.00;99.90;;;;;;4897317;29;20210;-69
2021/11/26 10:31:26;;;;;;;6.20;1.70;;;4.90;99.90;;;;;;4899308;29;20242;-69
2021/11/26 10:33:55;;;;;;;3.60;1.40;;;4.80;99.90;;;;;;4901088;29;20218;-71
2021/11/26 10:36:24;;;;;;;7.17;1.33;;;4.80;99.90;;;;;;4901281;29;20225;-71
2021/11/26 10:38:52;;;;;;;5.20;1.60;;;4.70;99.90;;;;;;4901295;29;20249;-71
2021/11/26 10:41:25;;;;;;;6.57;1.77;;;4.80;99.90;;;;;;4900871;29;20698;-71
2021/11/26 10:43:56;;;;;;;1.60;1.07;;;4.80;99.90;;;;;;4901201;29;20261;-70
2021/11/26 10:46:41;;;;;;;4.77;2.13;;;4.90;99.90;;;;;;4901203;29;20215;-71
2021/11/26 11:00:22;;;;;;;3.83;1.37;;;4.80;99.90;;;;;;4866759;29;20215;-71
2021/11/26 11:02:52;;;;;;;3.63;2.00;;;4.70;99.90;;;;;;4900892;29;20213;-72
2021/11/26 11:05:27;;;;;;;7.83;1.83;;;4.70;99.90;;;;;;4900832;29;20576;-72
2021/11/26 11:07:55;;;;;;;4.80;1.73;;;4.70;99.90;;;;;;4900731;29;20304;-72
2021/11/26 11:10:28;;;;;;;6.10;1.90;;;4.80;99.90;;;;;;4900528;29;20216;-72
2021/11/26 11:12:55;;;;;;;4.73;2.27;;;4.80;99.90;;;;;;4900592;29;20210;-75
2021/11/26 11:15:25;;;;;;;4.63;2.10;;;4.80;99.90;;;;;;4900805;29;20214;-73
2021/11/26 11:17:53;;;;;;;4.20;1.57;;;4.80;99.90;;;;;;4900569;29;20221;-71
2021/11/26 11:20:23;;;;;;;3.03;1.43;;;4.70;99.90;;;;;;4900765;29;20264;-72
2021/11/26 11:22:51;;;;;;;4.00;1.77;;;4.70;99.90;;;;;;4900525;29;20206;-72
2021/11/26 11:25:25;;;;;;;7.00;2.30;;;4.70;99.90;;;;;;4899948;29;20257;-72
2021/11/26 11:27:53;;;;;;;3.17;1.30;;;4.80;99.90;;;;;;4900331;29;20667;-72
2021/11/26 11:30:20;;;;;;;3.80;1.73;;;4.90;99.90;;;;;;4900247;29;20226;-72
2021/11/26 11:32:47;;;;;;;9.00;1.50;;;4.80;99.90;;;;;;4900334;29;20210;-71
2021/11/26 11:35:15;;;;;;;3.00;1.47;;;4.80;99.90;;;;;;4899617;29;20217;-72
2021/11/26 11:37:43;;;;;;;3.83;1.30;;;4.70;99.90;;;;;;4899513;29;20217;-72
2021/11/26 11:40:11;;;;;;;2.63;1.33;;;4.70;99.90;;;;;;4899777;29;20210;-72
2021/11/26 11:42:43;;;;;;;9.93;1.90;;;4.80;99.90;;;;;;4899404;29;20306;-71
2021/11/26 11:45:12;;;;;;;3.60;1.40;;;4.80;99.90;;;;;;4899607;29;20298;-71
2021/11/26 11:47:44;;;;;;;6.07;1.63;;;4.80;99.90;;;;;;4899311;29;20671;-71
2021/11/26 11:50:14;;;;;;;3.13;1.53;;;4.70;99.90;;;;;;4899338;29;20686;-71
2021/11/26 11:52:46;;;;;;;1.90;1.10;;;4.70;99.90;;;;;;4899872;29;20217;-72
2021/11/26 11:55:26;;;;;;;5.97;1.40;;;4.70;99.90;;;;;;4899588;29;20214;-71
2021/11/26 11:57:58;;;;;;;2.63;1.50;;;4.70;99.90;;;;;;4899547;29;20672;-71
2021/11/26 12:00:29;;;;;;;6.73;1.20;;;4.70;99.90;;;;;;4899424;29;20218;-71
2021/11/26 12:03:07;;;;;;;3.13;1.43;;;4.70;99.90;;;;;;4899404;29;20210;-72
2021/11/26 12:05:36;;;;;;;4.73;1.63;;;4.60;99.90;;;;;;4899461;29;20241;-71
2021/11/26 12:08:05;;;;;;;1.33;1.13;;;4.60;99.90;;;;;;4899327;29;20207;-71
2021/11/26 12:10:43;;;;;;;4.03;1.50;;;4.60;99.90;;;;;;4899108;29;20231;-71
2021/11/26 12:13:20;;;;;;;2.40;0.93;;;4.60;99.90;;;;;;4898843;29;20218;-72
2021/11/26 12:15:48;;;;;;;1.03;0.80;;;4.70;99.90;;;;;;4899171;29;20217;-71
2021/11/26 12:18:15;;;;;;;3.00;1.33;;;4.70;99.90;;;;;;4898915;29;20211;-71
2021/11/26 12:20:43;;;;;;;2.87;1.23;;;4.70;99.90;;;;;;4898785;29;20240;-71
2021/11/26 12:23:17;;;;;;;3.43;1.80;;;4.60;99.90;;;;;;4898730;29;20264;-71
2021/11/26 12:25:52;;;;;;;4.17;1.40;;;4.70;99.90;;;;;;4898469;29;20252;-71
2021/11/26 12:28:23;;;;;;;7.30;1.40;;;4.70;99.90;;;;;;4898696;29;20277;-70
2021/11/26 12:30:59;;;;;;;3.93;1.30;;;4.60;99.90;;;;;;4898582;29;20235;-71
2021/11/26 12:33:28;;;;;;;2.40;1.40;;;4.60;99.90;;;;;;4898512;29;20316;-71
2021/11/26 12:36:00;;;;;;;1.20;0.90;;;4.60;99.90;;;;;;4898521;29;20557;-70
2021/11/26 12:38:38;;;;;;;3.97;1.40;;;4.70;99.90;;;;;;4898799;29;20218;-71
2021/11/26 12:41:05;;;;;;;3.83;1.63;;;4.70;99.90;;;;;;4898751;29;20236;-71
2021/11/26 12:43:45;;;;;;;3.57;1.90;;;4.70;99.90;;;;;;4898466;29;20236;-71
2021/11/26 12:46:23;;;;;;;1.80;1.03;;;4.70;99.90;;;;;;4898472;29;20660;-71
2021/11/26 12:49:29;;;;;;;5.57;1.47;;;4.60;99.90;;;;;;4898388;29;20210;-70
2021/11/26 12:52:00;;;;;;;2.80;1.40;;;4.60;99.90;;;;;;4898303;29;20238;-71
2021/11/26 12:54:30;;;;;;;8.27;1.97;;;4.60;99.90;;;;;;4897603;29;20301;-71
2021/11/26 12:56:58;;;;;;;2.00;1.50;;;4.70;99.90;;;;;;4898349;29;20210;-71
2021/11/26 12:59:35;;;;;;;4.23;1.57;;;4.70;99.90;;;;;;4898607;29;20544;-71
2021/11/26 13:02:03;;;;;;;2.70;1.17;;;4.70;99.90;;;;;;4898007;29;20234;-71
2021/11/26 13:04:30;;;;;;;6.70;1.40;;;4.70;99.90;;;;;;4898483;29;20242;-71
2021/11/26 13:07:05;;;;;;;2.73;1.50;;;4.70;99.90;;;;;;4898266;29;20307;-71
2021/11/26 13:09:46;;;;;;;1.87;1.40;;;4.70;99.90;;;;;;4898070;29;20221;-71
2021/11/26 13:12:14;;;;;;;6.00;1.20;;;4.60;99.90;;;;;;4897514;29;20710;-70
2021/11/26 13:14:54;;;;;;;1.30;1.10;;;4.60;99.90;;;;;;4897816;29;20211;-71
2021/11/26 13:17:22;;;;;;;1.97;1.20;;;4.60;99.90;;;;;;4897687;29;20661;-71
2021/11/26 13:19:58;;;;;;;2.40;1.10;;;4.60;99.90;;;;;;4898020;29;20217;-71
2021/11/26 13:22:25;;;;;;;1.30;1.13;;;4.60;99.90;;;;;;4897893;29;20230;-71
2021/11/26 13:24:53;;;;;;;3.33;1.20;;;4.70;99.90;;;;;;4897652;29;20242;-71
2021/11/26 13:27:20;;;;;;;2.13;1.17;;;4.70;99.90;;;;;;4897954;29;20210;-71
2021/11/26 13:29:52;;;;;;;1.67;1.23;;;4.60;99.90;;;;;;4898143;29;20214;-70
2021/11/26 13:32:20;;;;;;;1.50;1.00;;;4.60;99.90;;;;;;4898283;29;20230;-71
2021/11/26 13:34:54;;;;;;;5.47;1.27;;;4.60;99.90;;;;;;4898218;29;20237;-71
2021/11/26 13:37:22;;;;;;;1.33;1.00;;;4.60;99.90;;;;;;4897952;29;20218;-70
2021/11/26 13:39:55;;;;;;;6.83;1.23;;;4.60;99.90;;;;;;4898203;29;20738;-71
2021/11/26 13:42:23;;;;;;;1.67;1.27;;;4.70;99.90;;;;;;4897662;29;20710;-71
2021/11/26 13:44:50;;;;;;;1.50;0.90;;;4.70;99.90;;;;;;4897744;29;20242;-70
2021/11/26 13:47:21;;;;;;;2.33;1.13;;;4.80;99.90;;;;;;4898051;29;20215;-71
2021/11/26 13:49:48;;;;;;;1.47;1.10;;;4.80;99.90;;;;;;4897755;29;20217;-71
2021/11/26 13:52:15;;;;;;;1.93;0.90;;;4.80;99.90;;;;;;4897423;29;20230;-73
2021/11/26 13:54:45;;;;;;;4.30;1.30;;;4.80;99.90;;;;;;4893944;29;20214;-72
2021/11/26 13:57:11;;;;;;;2.80;1.30;;;4.80;99.90;;;;;;4896194;29;20212;-75
2021/11/26 13:59:40;;;;;;;3.50;1.30;;;4.90;99.90;;;;;;4896959;29;20214;-74
2021/11/26 14:02:10;;;;;;;1.10;0.90;;;4.90;99.90;;;;;;4896278;29;20240;-73
2021/11/26 14:04:40;;;;;;;3.67;1.30;;;4.80;99.90;;;;;;4896682;29;20234;-76
2021/11/26 14:07:14;;;;;;;2.23;0.83;;;4.80;99.90;;;;;;4898096;29;20214;-71
2021/11/26 14:09:42;;;;;;;2.70;1.30;;;4.80;99.90;;;;;;4899290;29;20222;-73
2021/11/26 14:12:14;;;;;;;3.97;1.17;;;4.70;99.90;;;;;;4908529;29;20236;-72
2021/11/26 14:14:42;;;;;;;2.87;1.37;;;4.80;99.90;;;;;;4913761;29;20214;-74
2021/11/26 14:17:09;;;;;;;4.37;1.50;;;4.80;99.90;;;;;;4899635;29;20232;-75
2021/11/26 14:19:39;;;;;;;1.77;1.40;;;4.80;99.90;;;;;;4899813;29;20221;-74
2021/11/26 14:22:10;;;;;;;2.17;1.20;;;4.80;99.90;;;;;;4900086;29;20239;-74
2021/11/26 14:24:40;;;;;;;1.27;0.97;;;4.70;99.90;;;;;;4905259;29;20234;-73
2021/11/26 14:27:08;;;;;;;13.70;1.80;;;4.60;99.90;;;;;;4899940;29;20214;-72
2021/11/26 14:29:35;;;;;;;1.47;0.87;;;4.60;99.90;;;;;;4900238;29;20215;-74
2021/11/26 14:32:11;;;;;;;2.30;0.93;;;4.70;99.90;;;;;;4898944;29;20230;-74
2021/11/26 14:34:42;;;;;;;1.80;1.40;;;4.60;99.90;;;;;;4899718;29;20217;-77
2021/11/26 14:37:10;;;;;;;1.47;0.80;;;4.60;99.90;;;;;;4905148;29;20206;-74
2021/11/26 14:39:38;;;;;;;1.77;1.13;;;4.60;99.90;;;;;;4917824;29;20217;-74
2021/11/26 14:42:07;;;;;;;4.47;1.33;;;4.60;99.90;;;;;;4918145;29;20225;-74
2021/11/26 14:44:44;;;;;;;1.20;0.87;;;4.60;99.90;;;;;;4913935;29;20237;-76
2021/11/26 14:47:11;;;;;;;6.73;1.77;;;4.60;99.90;;;;;;4898807;29;20678;-74
2021/11/26 14:49:47;;;;;;;2.30;1.13;;;4.60;99.90;;;;;;4899775;29;20300;-74
2021/11/26 14:52:15;;;;;;;1.33;1.00;;;4.50;99.90;;;;;;4898778;29;20639;-74
2021/11/26 14:54:43;;;;;;;1.90;1.20;;;4.60;99.90;;;;;;4898881;29;20217;-75
2021/11/26 14:57:11;;;;;;;2.73;1.03;;;4.60;99.90;;;;;;4899388;29;20214;-75
2021/11/26 14:59:40;;;;;;;2.20;1.40;;;4.60;99.90;;;;;;4899354;29;20210;-76
2021/11/26 15:02:07;;;;;;;1.07;0.53;;;4.60;99.90;;;;;;4917451;29;20229;-76
2021/11/26 15:04:34;;;;;;;1.40;1.07;;;4.60;99.90;;;;;;4904243;29;20218;-73
2021/11/26 15:07:02;;;;;;;2.10;1.20;;;4.50;99.90;;;;;;4899186;29;20676;-77
2021/11/26 15:09:29;;;;;;;2.23;0.97;;;4.50;99.90;;;;;;4899806;29;20214;-75
2021/11/26 15:11:56;;;;;;;2.67;0.93;;;4.50;99.90;;;;;;4899502;29;20237;-75
2021/11/26 15:14:23;;;;;;;1.67;0.90;;;4.50;99.90;;;;;;4897058;29;20687;-75
2021/11/26 15:16:50;;;;;;;2.50;1.30;;;4.50;99.90;;;;;;4898385;29;20206;-76
2021/11/26 15:19:17;;;;;;;3.80;1.40;;;4.50;99.90;;;;;;4898356;29;20221;-76
2021/11/26 15:21:44;;;;;;;1.63;0.93;;;4.50;99.90;;;;;;4898489;29;20234;-77
2021/11/26 15:24:13;;;;;;;1.93;1.00;;;4.60;99.90;;;;;;4898867;29;20241;-76
2021/11/26 15:26:41;;;;;;;1.60;0.97;;;4.50;99.90;;;;;;4898788;29;20242;-75
2021/11/26 15:29:08;;;;;;;2.60;1.23;;;4.50;99.90;;;;;;4898765;29;20206;-75
2021/11/26 15:31:36;;;;;;;5.13;2.07;;;4.50;99.90;;;;;;4898894;29;20237;-75
2021/11/26 15:34:03;;;;;;;0.93;0.70;;;4.60;99.90;;;;;;4898577;29;20463;-73
2021/11/26 15:36:30;;;;;;;1.40;1.10;;;4.50;99.90;;;;;;4898220;29;20252;-73
2021/11/26 15:38:58;;;;;;;1.10;1.00;;;4.50;99.90;;;;;;4898625;29;20210;-73
2021/11/26 15:41:26;;;;;;;2.37;1.30;;;4.50;99.90;;;;;;4898222;29;20234;-76
2021/11/26 15:43:53;;;;;;;3.70;1.13;;;4.60;99.90;;;;;;4897372;29;20214;-73
2021/11/26 15:46:20;;;;;;;1.27;1.00;;;4.60;99.90;;;;;;4898086;29;20244;-74
2021/11/26 15:48:47;;;;;;;1.90;1.20;;;4.60;99.90;;;;;;4898336;29;20210;-74
2021/11/26 15:51:14;;;;;;;3.80;1.43;;;4.60;99.90;;;;;;4898130;29;20230;-73
2021/11/26 15:53:41;;;;;;;4.07;1.27;;;4.60;99.90;;;;;;4898183;29;20211;-70
2021/11/26 15:56:12;;;;;;;1.40;0.83;;;4.50;99.90;;;;;;4897938;29;20210;-74
2021/11/26 15:58:43;;;;;;;2.87;1.00;;;4.50;99.90;;;;;;4897209;29;20557;-75
2021/11/26 16:01:12;;;;;;;2.07;0.90;;;4.50;99.90;;;;;;4909562;29;20247;-77
2021/11/26 16:03:39;;;;;;;4.00;1.27;;;4.50;99.90;;;;;;4903521;29;20233;-75
2021/11/26 16:06:06;;;;;;;3.93;1.40;;;4.50;99.90;;;;;;4897571;29;20269;-75
2021/11/26 16:08:34;;;;;;;1.40;1.10;;;4.50;99.90;;;;;;4897984;29;20262;-75
2021/11/26 16:11:02;;;;;;;2.40;1.33;;;4.50;99.90;;;;;;4897258;29;20265;-72
2021/11/26 16:13:32;;;;;;;2.40;1.50;;;4.50;99.90;;;;;;4897773;29;20215;-72
2021/11/26 16:16:01;;;;;;;1.27;1.00;;;4.60;99.90;;;;;;4896240;29;20297;-77
2021/11/26 16:18:29;;;;;;;1.73;1.20;;;4.60;99.90;;;;;;4896568;29;20207;-72
2021/11/26 16:20:56;;;;;;;1.70;1.13;;;4.70;99.90;;;;;;4895273;29;20225;-72
2021/11/26 16:23:23;;;;;;;2.63;1.63;;;4.70;99.90;;;;;;4896384;29;20667;-75
2021/11/26 16:25:50;;;;;;;4.63;1.70;;;4.70;99.90;;;;;;4897956;29;20237;-79
2021/11/26 16:28:19;;;;;;;2.30;1.57;;;4.80;99.90;;;;;;4897933;29;20227;-73
2021/11/26 16:30:46;;;;;;;4.43;1.23;;;4.80;99.90;;;;;;4899676;29;20259;-74
2021/11/26 16:33:20;;;;;;;4.07;2.00;;;4.70;99.90;;;;;;4901953;29;20285;-78
2021/11/26 16:35:50;;;;;;;3.33;1.63;;;4.70;99.90;;;;;;4900433;29;20242;-72
2021/11/26 16:38:20;;;;;;;2.07;1.70;;;4.70;99.90;;;;;;4884539;29;20207;-72
2021/11/26 16:40:46;;;;;;;3.13;2.00;;;4.70;99.90;;;;;;4883226;29;20406;-74
2021/11/26 16:43:13;;;;;;;2.20;1.80;;;4.70;99.90;;;;;;4880454;29;20211;-76
2021/11/26 16:45:41;;;;;;;2.53;1.83;;;4.70;99.90;;;;;;4880748;29;20259;-75
2021/11/26 16:48:08;;;;;;;4.40;2.10;;;4.60;99.90;;;;;;4883399;29;20718;-76
2021/11/26 16:50:37;;;;;;;3.57;2.10;;;4.70;99.90;;;;;;4897957;29;20325;-74
2021/11/26 16:53:03;;;;;;;2.50;1.63;;;4.70;99.90;;;;;;4899546;29;20242;-72
2021/11/26 16:55:31;;;;;;;2.77;1.67;;;4.70;99.90;;;;;;4888719;29;20208;-73
2021/11/26 16:57:59;;;;;;;3.07;1.90;;;4.70;99.90;;;;;;4879807;29;20211;-77
2021/11/26 17:00:27;;;;;;;8.80;2.53;;;4.80;99.90;;;;;;4879060;29;20215;-74
2021/11/26 17:02:55;;;;;;;3.73;2.17;;;4.90;99.90;;;;;;4880699;29;20219;-72
2021/11/26 17:05:22;;;;;;;4.77;2.10;;;4.80;99.90;;;;;;4893758;29;20230;-76
2021/11/26 17:07:50;;;;;;;3.90;2.40;;;4.90;99.90;;;;;;4898116;29;20236;-73
2021/11/26 17:10:17;;;;;;;3.50;1.57;;;4.90;99.90;;;;;;4897558;29;20685;-73
2021/11/26 17:12:44;;;;;;;2.50;2.00;;;4.90;99.90;;;;;;4880691;29;20565;-79
2021/11/26 17:15:11;;;;;;;3.13;1.40;;;4.90;99.90;;;;;;4879425;29;20278;-81
2021/11/26 17:17:38;;;;;;;2.87;1.80;;;4.90;99.90;;;;;;4879517;29;20305;-73
2021/11/26 17:20:07;;;;;;;3.57;2.17;;;5.00;99.90;;;;;;4879027;29;20246;-74
2021/11/26 17:22:35;;;;;;;3.07;2.20;;;5.00;99.90;;;;;;4878654;29;20219;-77
2021/11/26 17:25:04;;;;;;;4.03;2.40;;;4.90;99.90;;;;;;4878764;29;20235;-74
2021/11/26 17:27:31;;;;;;;3.17;2.43;;;4.90;99.90;;;;;;4879109;29;20217;-76
2021/11/26 17:29:58;;;;;;;2.50;1.80;;;4.90;99.90;;;;;;4879523;29;20740;-75
2021/11/26 17:32:25;;;;;;;3.67;2.37;;;4.90;99.90;;;;;;4878847;29;20266;-76
2021/11/26 17:34:51;;;;;;;7.20;2.63;;;5.00;99.90;;;;;;4878985;29;20211;-76
2021/11/26 17:37:18;;;;;;;2.80;2.20;;;5.00;99.90;;;;;;4883753;29;20202;-74
2021/11/26 17:39:45;;;;;;;2.67;1.97;;;5.10;99.90;;;;;;4901507;29;20214;-78
2021/11/26 17:42:14;;;;;;;4.13;2.60;;;5.00;99.90;;;;;;4898258;29;20234;-79
2021/11/26 17:44:41;;;;;;;5.27;2.63;;;5.00;99.90;;;;;;4900166;29;20221;-79
2021/11/26 17:47:08;;;;;;;3.30;2.20;;;5.10;99.90;;;;;;4899138;29;20324;-80
2021/11/26 17:49:35;;;;;;;3.47;2.33;;;5.10;99.90;;;;;;4899639;29;20220;-72
2021/11/26 17:52:04;;;;;;;4.70;3.00;;;5.20;99.90;;;;;;4896944;29;20329;-74
2021/11/26 17:54:31;;;;;;;4.27;2.43;;;5.30;99.90;;;;;;4883059;29;20235;-80
2021/11/26 17:56:59;;;;;;;4.57;2.20;;;5.40;99.90;;;;;;4881895;29;20215;-71
2021/11/26 17:59:28;;;;;;;4.83;2.00;;;5.40;99.90;;;;;;4881537;29;20206;-73
2021/11/26 18:01:55;;;;;;;3.33;2.30;;;5.40;99.90;;;;;;4880985;29;20258;-79
2021/11/26 18:04:24;;;;;;;3.23;2.30;;;5.40;99.90;;;;;;4880135;29;20219;-76
2021/11/26 18:06:54;;;;;;;3.67;2.20;;;5.50;99.90;;;;;;4896829;29;20710;-76
2021/11/26 18:09:24;;;;;;;5.70;2.40;;;5.40;99.90;;;;;;4897233;29;20235;-71
2021/11/26 18:12:01;;;;;;;2.70;2.20;;;5.50;99.90;;;;;;4896258;29;20218;-77
2021/11/26 18:14:29;;;;;;;4.37;2.47;;;5.50;99.90;;;;;;4896411;29;20254;-78
2021/11/26 18:16:56;;;;;;;4.20;2.77;;;5.40;99.90;;;;;;4896865;29;20210;-79
2021/11/26 18:19:23;;;;;;;5.43;2.40;;;5.40;99.90;;;;;;4895657;29;20202;-78
2021/11/26 18:21:50;;;;;;;3.73;2.40;;;5.40;99.90;;;;;;4898149;29;20234;-77
2021/11/26 18:24:16;;;;;;;3.53;2.23;;;5.50;99.90;;;;;;4905339;29;20245;-78
2021/11/26 18:26:43;;;;;;;3.20;2.30;;;5.50;99.90;;;;;;4905071;29;20234;-78
2021/11/26 18:29:10;;;;;;;4.47;2.67;;;5.50;99.90;;;;;;4904453;29;20209;-78
2021/11/26 18:31:38;;;;;;;5.23;2.43;;;5.50;99.90;;;;;;4898599;29;20231;-75
2021/11/26 18:34:06;;;;;;;7.00;3.13;;;5.50;99.90;;;;;;4897374;29;20217;-77
2021/11/26 18:36:33;;;;;;;4.37;2.80;;;5.50;99.90;;;;;;4897525;29;20215;-78
2021/11/26 18:39:03;;;;;;;6.60;3.30;;;5.60;99.90;;;;;;4899732;29;20206;-76
2021/11/26 18:41:32;;;;;;;5.70;3.57;;;5.60;99.90;;;;;;4897508;29;20235;-72
2021/11/26 18:43:59;;;;;;;6.43;3.07;;;5.60;99.90;;;;;;4897439;29;20210;-74
2021/11/26 18:46:26;;;;;;;7.43;3.53;;;5.60;99.90;;;;;;4897150;29;20270;-73
2021/11/26 18:48:55;;;;;;;5.57;3.20;;;5.60;99.90;;;;;;4897307;29;20563;-72
2021/11/26 18:51:22;;;;;;;3.80;2.70;;;5.60;99.90;;;;;;4897277;29;20230;-72
2021/11/26 18:53:49;;;;;;;3.73;2.40;;;5.60;99.90;;;;;;4900569;29;20694;-73
2021/11/26 18:56:16;;;;;;;4.47;3.00;;;5.60;99.90;;;;;;4900727;29;20214;-72
2021/11/26 18:58:43;;;;;;;5.03;3.07;;;5.60;99.90;;;;;;4900669;29;20210;-72
2021/11/26 19:01:11;;;;;;;6.63;3.53;;;5.60;99.90;;;;;;4881999;29;20223;-71
2021/11/26 19:03:38;;;;;;;4.87;3.40;;;5.80;99.90;;;;;;4881738;29;20219;-72
2021/11/26 19:06:06;;;;;;;5.63;3.57;;;5.80;99.90;;;;;;4882072;29;20231;-72
2021/11/26 19:08:33;;;;;;;7.50;4.07;;;5.70;99.90;;;;;;4881963;29;20215;-76
2021/11/26 19:11:01;;;;;;;4.83;3.53;;;5.80;99.90;;;;;;4881600;29;20235;-72
2021/11/26 19:13:28;;;;;;;7.33;4.40;;;5.80;99.90;;;;;;4882148;29;20704;-77
2021/11/26 19:15:55;;;;;;;6.40;4.37;;;5.80;99.90;;;;;;4881615;29;20211;-74
2021/11/26 19:18:22;;;;;;;9.40;3.50;;;5.80;99.90;;;;;;4881449;29;20707;-72
2021/11/26 19:20:49;;;;;;;5.30;3.60;;;5.90;99.90;;;;;;4881248;29;20727;-78
2021/11/26 19:23:17;;;;;;;5.60;3.63;;;5.80;99.90;;;;;;4881843;29;20233;-73
2021/11/26 19:25:44;;;;;;;9.03;3.60;;;5.80;99.90;;;;;;4881299;29;20649;-73
2021/11/26 19:28:11;;;;;;;3.97;2.70;;;5.80;99.90;;;;;;4881273;29;20583;-73
2021/11/26 19:30:40;;;;;;;6.57;3.90;;;5.70;99.90;;;;;;4880769;29;20322;-73
2021/11/26 19:33:08;;;;;;;9.97;3.33;;;5.70;99.90;;;;;;4881359;29;20221;-73
2021/11/26 19:35:35;;;;;;;7.80;2.97;;;5.60;99.90;;;;;;4881450;29;20668;-73
2021/11/26 19:38:02;;;;;;;5.27;3.00;;;5.60;99.90;;;;;;4881345;29;20420;-72
2021/11/26 19:40:32;;;;;;;9.60;3.80;;;5.70;99.90;;;;;;4881100;29;20231;-72
2021/11/26 19:43:01;;;;;;;6.57;3.30;;;5.60;99.90;;;;;;4881674;29;20211;-73
2021/11/26 19:45:28;;;;;;;5.33;3.00;;;5.60;99.90;;;;;;4881433;29;20632;-73
2021/11/26 19:47:55;;;;;;;10.23;4.23;;;5.70;99.90;;;;;;4880902;29;20243;-73
2021/11/26 19:50:22;;;;;;;4.50;2.27;;;5.70;99.90;;;;;;4880955;29;20311;-70
2021/11/26 19:52:49;;;;;;;7.10;2.93;;;5.70;99.90;;;;;;4881313;29;20215;-70
2021/11/26 19:55:19;;;;;;;7.37;2.73;;;5.80;99.90;;;;;;4880936;29;20217;-71
2021/11/26 19:57:48;;;;;;;5.83;2.80;;;5.80;99.90;;;;;;4880956;29;20243;-71
2021/11/26 20:00:18;;;;;;;4.33;2.67;;;5.80;99.90;;;;;;4881270;29;20207;-72
2021/11/26 20:02:45;;;;;;;4.53;2.40;;;5.80;99.90;;;;;;4880931;29;20211;-71
2021/11/26 20:05:13;;;;;;;4.00;2.20;;;5.80;99.90;;;;;;4880179;29;20253;-71
2021/11/26 20:07:39;;;;;;;3.80;2.60;;;5.80;99.90;;;;;;4880760;29;20293;-78
2021/11/26 20:10:09;;;;;;;4.43;2.80;;;5.80;99.90;;;;;;4881285;29;20222;-71
2021/11/26 20:12:36;;;;;;;5.60;2.40;;;5.80;99.90;;;;;;4881201;29;20219;-75
2021/11/26 20:15:06;;;;;;;4.23;2.80;;;5.80;99.90;;;;;;4880862;29;20684;-76
2021/11/26 20:17:36;;;;;;;9.43;2.90;;;5.80;99.90;;;;;;4880316;29;20203;-74
2021/11/26 20:20:04;;;;;;;7.87;3.60;;;5.80;99.90;;;;;;4880504;29;20235;-75
2021/11/26 20:22:32;;;;;;;4.47;3.13;;;5.80;99.90;;;;;;4880535;29;20231;-73
2021/11/26 20:24:58;;;;;;;6.53;3.53;;;5.80;99.90;;;;;;4880164;29;20222;-78
2021/11/26 20:27:25;;;;;;;4.30;3.00;;;5.80;99.90;;;;;;4880509;29;20239;-78
2021/11/26 20:29:52;;;;;;;6.10;3.17;;;5.80;99.90;;;;;;4880696;29;20221;-79
2021/11/26 20:32:20;;;;;;;5.17;3.37;;;5.80;99.90;;;;;;4880405;29;20241;-80
2021/11/26 20:34:47;;;;;;;6.17;3.20;;;5.90;99.90;;;;;;4880331;29;20576;-75
2021/11/26 20:37:14;;;;;;;8.07;3.17;;;5.90;99.90;;;;;;4880103;29;20211;-72
2021/11/26 20:39:42;;;;;;;7.20;3.70;;;6.00;99.90;;;;;;4880208;29;20271;-77
2021/11/26 20:42:09;;;;;;;8.27;4.00;;;6.00;99.90;;;;;;4880364;29;20231;-75